^^
Grace C. Lehan Memorial Weather Station Historical Data
Daily Summary for September 26, 2022 Units:  Both    English   Metric
Daily Weekly Monthly Yearly
  High: Low: Average:
Temperature: 45.1 °F /  7.3 °C 40.4 °F /  4.7 °C 41.7 °F /  5.4 °C
Dew Point: 34 °F /  1.1 °C 28.7 °F /  -1.8 °C 30.2 °F /  -1 °C
Humidity: 66% 60.5% 63%
Wind Speed: 11.3mph /  18.2km/h - 4.4mph /  7.1km/h
Wind Gust: 21mph /  33.8km/h - -
Wind- - NW
Pressure: 29.96 in /  1014.4 hPa 29.83 in /  1010 hPa -
Precipitation: 0.00 in /  0 mm    
 
 
Tabular Data for September 26, 2022
Time Temperature Dew Point Pressure Wind Wind Speed Wind Gust Humidity Rainfall Rate (Hourly) solar
00:04 43 °F /  6.1 °C 30.5 °F /  -0.8 °C 29.84in /  1010.4hPa WNW 6.1mph /  9.8km/h 21mph /  33.8km/h 61% 0.00in /  0mm 0 W/m2
00:09 43 °F /  6.1 °C 30.6 °F /  -0.8 °C 29.84in /  1010.4hPa WNW 5.8mph /  9.3km/h 13mph /  20.9km/h 61.3% 0.00in /  0mm 0 W/m2
00:14 43 °F /  6.1 °C 30.5 °F /  -0.8 °C 29.84in /  1010.4hPa NW 5.6mph /  9km/h 16mph /  25.7km/h 61% 0.00in /  0mm 0 W/m2
00:19 43 °F /  6.1 °C 30.8 °F /  -0.7 °C 29.83in /  1010hPa NW 4.6mph /  7.4km/h 16mph /  25.7km/h 61.7% 0.00in /  0mm 0 W/m2
00:24 43 °F /  6.1 °C 30.9 °F /  -0.6 °C 29.84in /  1010.4hPa NW 6.2mph /  10km/h 16mph /  25.7km/h 62% 0.00in /  0mm 0 W/m2
00:29 43 °F /  6.1 °C 30.7 °F /  -0.7 °C 29.83in /  1010hPa NW 9.6mph /  15.4km/h 20mph /  32.2km/h 61.6% 0.00in /  0mm 0 W/m2
00:34 43 °F /  6.1 °C 30.5 °F /  -0.8 °C 29.84in /  1010.4hPa NW 3.8mph /  6.1km/h 20mph /  32.2km/h 61% 0.00in /  0mm 0 W/m2
00:39 43 °F /  6.1 °C 30.5 °F /  -0.8 °C 29.84in /  1010.4hPa NW 4.2mph /  6.8km/h 14mph /  22.5km/h 61% 0.00in /  0mm 0 W/m2
00:44 42.9 °F /  6.1 °C 30.4 °F /  -0.9 °C 29.84in /  1010.4hPa NW 2.4mph /  3.9km/h 14mph /  22.5km/h 61% 0.00in /  0mm 0 W/m2
00:49 42.9 °F /  6.1 °C 30.4 °F /  -0.9 °C 29.84in /  1010.4hPa WNW 5.1mph /  8.2km/h 15mph /  24.1km/h 61.2% 0.00in /  0mm 0 W/m2
00:54 42.8 °F /  6 °C 30.3 °F /  -0.9 °C 29.84in /  1010.4hPa NW 2.6mph /  4.2km/h 15mph /  24.1km/h 61% 0.00in /  0mm 0 W/m2
00:59 42.8 °F /  6 °C 30.3 °F /  -0.9 °C 29.84in /  1010.4hPa NW 3.5mph /  5.6km/h 15mph /  24.1km/h 61.1% 0.00in /  0mm 0 W/m2
01:04 42.7 °F /  5.9 °C 30.1 °F /  -1.1 °C 29.84in /  1010.4hPa WNW 6.1mph /  9.8km/h 19mph /  30.6km/h 60.8% 0.00in /  0mm 0 W/m2
01:09 42.6 °F /  5.9 °C 30 °F /  -1.1 °C 29.84in /  1010.4hPa NW 9.1mph /  14.6km/h 19mph /  30.6km/h 60.7% 0.00in /  0mm 0 W/m2
01:14 42.5 °F /  5.8 °C 29.8 °F /  -1.2 °C 29.84in /  1010.4hPa NW 6.2mph /  10km/h 19mph /  30.6km/h 60.5% 0.00in /  0mm 0 W/m2
01:19 42.5 °F /  5.8 °C 30 °F /  -1.1 °C 29.84in /  1010.4hPa NW 4.5mph /  7.2km/h 19mph /  30.6km/h 61% 0.00in /  0mm 0 W/m2
01:24 42.4 °F /  5.8 °C 29.9 °F /  -1.2 °C 29.84in /  1010.4hPa NW 2.9mph /  4.7km/h 19mph /  30.6km/h 61% 0.00in /  0mm 0 W/m2
01:29 42.3 °F /  5.7 °C 29.8 °F /  -1.2 °C 29.84in /  1010.4hPa NNW 0.6mph /  1km/h 19mph /  30.6km/h 61% 0.00in /  0mm 0 W/m2
01:34 42.2 °F /  5.7 °C 29.8 °F /  -1.2 °C 29.85in /  1010.7hPa NNW 1mph /  1.6km/h 19mph /  30.6km/h 61.3% 0.00in /  0mm 0 W/m2
01:39 42 °F /  5.6 °C 29.9 °F /  -1.2 °C 29.85in /  1010.7hPa NW 4.2mph /  6.8km/h 19mph /  30.6km/h 62% 0.00in /  0mm 0 W/m2
01:44 41.9 °F /  5.5 °C 29.9 °F /  -1.2 °C 29.85in /  1010.7hPa NW 3.1mph /  5km/h 19mph /  30.6km/h 62% 0.00in /  0mm 0 W/m2
01:49 41.9 °F /  5.5 °C 29.9 °F /  -1.2 °C 29.85in /  1010.7hPa NW 6.4mph /  10.3km/h 19mph /  30.6km/h 62% 0.00in /  0mm 0 W/m2
01:54 41.9 °F /  5.5 °C 29.9 °F /  -1.2 °C 29.85in /  1010.7hPa NW 5mph /  8km/h 19mph /  30.6km/h 62% 0.00in /  0mm 0 W/m2
01:59 41.9 °F /  5.5 °C 29.8 °F /  -1.2 °C 29.85in /  1010.7hPa NW 4.7mph /  7.6km/h 19mph /  30.6km/h 62% 0.00in /  0mm 0 W/m2
02:04 41.8 °F /  5.4 °C 29.7 °F /  -1.3 °C 29.85in /  1010.7hPa NW 6.2mph /  10km/h 19mph /  30.6km/h 62% 0.00in /  0mm 0 W/m2
02:09 41.7 °F /  5.4 °C 29.7 °F /  -1.3 °C 29.85in /  1010.7hPa NW 2mph /  3.2km/h 14mph /  22.5km/h 62% 0.00in /  0mm 0 W/m2
02:14 41.6 °F /  5.3 °C 29.9 °F /  -1.2 °C 29.85in /  1010.7hPa NW 0.4mph /  0.6km/h 14mph /  22.5km/h 63% 0.00in /  0mm 0 W/m2
02:19 41.4 °F /  5.2 °C 29.8 °F /  -1.2 °C 29.85in /  1010.7hPa NW 1.7mph /  2.7km/h 16mph /  25.7km/h 63% 0.00in /  0mm 0 W/m2
02:24 41.2 °F /  5.1 °C 29.6 °F /  -1.3 °C 29.85in /  1010.7hPa NW 4.1mph /  6.6km/h 16mph /  25.7km/h 63% 0.00in /  0mm 0 W/m2
02:29 41.1 °F /  5.1 °C 29.4 °F /  -1.4 °C 29.86in /  1011.1hPa NW 3.9mph /  6.3km/h 16mph /  25.7km/h 63% 0.00in /  0mm 0 W/m2
02:34 41 °F /  5 °C 29.4 °F /  -1.4 °C 29.86in /  1011.1hPa NW 3mph /  4.8km/h 16mph /  25.7km/h 63% 0.00in /  0mm 0 W/m2
02:39 41 °F /  5 °C 29.3 °F /  -1.5 °C 29.86in /  1011.1hPa NW 5.3mph /  8.5km/h 15mph /  24.1km/h 63% 0.00in /  0mm 0 W/m2
02:44 41 °F /  5 °C 29.4 °F /  -1.4 °C 29.86in /  1011.1hPa WNW 2.7mph /  4.3km/h 15mph /  24.1km/h 63% 0.00in /  0mm 0 W/m2
02:49 41 °F /  5 °C 29.4 °F /  -1.4 °C 29.87in /  1011.4hPa NW 2.5mph /  4km/h 15mph /  24.1km/h 63% 0.00in /  0mm 0 W/m2
02:54 41 °F /  5 °C 29.3 °F /  -1.5 °C 29.87in /  1011.4hPa NW 5mph /  8km/h 15mph /  24.1km/h 63% 0.00in /  0mm 0 W/m2
02:59 41 °F /  5 °C 29.2 °F /  -1.6 °C 29.87in /  1011.4hPa WNW 5.1mph /  8.2km/h 15mph /  24.1km/h 62.5% 0.00in /  0mm 0 W/m2
03:04 41 °F /  5 °C 29 °F /  -1.7 °C 29.87in /  1011.4hPa NW 3mph /  4.8km/h 15mph /  24.1km/h 62% 0.00in /  0mm 0 W/m2
03:09 40.9 °F /  4.9 °C 28.9 °F /  -1.7 °C 29.87in /  1011.4hPa WNW 1.4mph /  2.3km/h 11mph /  17.7km/h 62% 0.00in /  0mm 0 W/m2
03:14 40.8 °F /  4.9 °C 28.8 °F /  -1.8 °C 29.87in /  1011.4hPa WNW 4.6mph /  7.4km/h 13mph /  20.9km/h 62% 0.00in /  0mm 0 W/m2
03:19 40.8 °F /  4.9 °C 28.8 °F /  -1.8 °C 29.87in /  1011.4hPa WNW 4.9mph /  7.9km/h 15mph /  24.1km/h 62% 0.00in /  0mm 0 W/m2
03:24 40.7 °F /  4.8 °C 28.8 °F /  -1.8 °C 29.88in /  1011.7hPa WNW 4.7mph /  7.6km/h 16mph /  25.7km/h 62.3% 0.00in /  0mm 0 W/m2
03:29 40.7 °F /  4.8 °C 28.7 °F /  -1.8 °C 29.88in /  1011.7hPa WNW 6mph /  9.7km/h 16mph /  25.7km/h 62% 0.00in /  0mm 0 W/m2
03:34 40.7 °F /  4.8 °C 28.7 °F /  -1.8 °C 29.88in /  1011.7hPa WNW 6.6mph /  10.6km/h 20mph /  32.2km/h 62% 0.00in /  0mm 0 W/m2
03:39 40.7 °F /  4.8 °C 28.7 °F /  -1.8 °C 29.88in /  1011.7hPa NW 4.2mph /  6.8km/h 20mph /  32.2km/h 62% 0.00in /  0mm 0 W/m2
03:44 40.7 °F /  4.8 °C 28.7 °F /  -1.8 °C 29.88in /  1011.7hPa WNW 6.7mph /  10.8km/h 20mph /  32.2km/h 62% 0.00in /  0mm 0 W/m2
03:49 40.7 °F /  4.8 °C 28.7 °F /  -1.8 °C 29.89in /  1012.1hPa WNW 6.7mph /  10.8km/h 20mph /  32.2km/h 62% 0.00in /  0mm 0 W/m2
03:54 40.7 °F /  4.8 °C 28.7 °F /  -1.8 °C 29.89in /  1012.1hPa NW 6.3mph /  10.1km/h 20mph /  32.2km/h 62% 0.00in /  0mm 0 W/m2
03:59 40.8 °F /  4.9 °C 28.8 °F /  -1.8 °C 29.89in /  1012.1hPa NW 4.8mph /  7.7km/h 20mph /  32.2km/h 62% 0.00in /  0mm 0 W/m2
04:00 40.8 °F /  4.9 °C 28.8 °F /  -1.8 °C 29.89in /  1012.1hPa NW 7mph /  11.3km/h 20mph /  32.2km/h 62% 0.00in /  0mm 0 W/m2
04:09 40.7 °F /  4.8 °C 28.7 °F /  -1.8 °C 29.89in /  1012.1hPa WNW 7.2mph /  11.6km/h 14mph /  22.5km/h 62% 0.00in /  0mm 0 W/m2
04:14 40.7 °F /  4.8 °C 28.7 °F /  -1.8 °C 29.89in /  1012.1hPa NW 8.5mph /  13.7km/h 18mph /  29km/h 62% 0.00in /  0mm 0 W/m2
04:19 40.8 °F /  4.9 °C 28.8 °F /  -1.8 °C 29.89in /  1012.1hPa NW 9.5mph /  15.3km/h 18mph /  29km/h 62% 0.00in /  0mm 0 W/m2
04:24 40.9 °F /  4.9 °C 28.9 °F /  -1.7 °C 29.89in /  1012.1hPa NW 9.1mph /  14.6km/h 19mph /  30.6km/h 62% 0.00in /  0mm 0 W/m2
04:29 41.1 °F /  5.1 °C 29.1 °F /  -1.6 °C 29.89in /  1012.1hPa WNW 11.3mph /  18.2km/h 20mph /  32.2km/h 62% 0.00in /  0mm 0 W/m2
04:34 41.2 °F /  5.1 °C 29.2 °F /  -1.6 °C 29.89in /  1012.1hPa NW 4.2mph /  6.8km/h 20mph /  32.2km/h 62% 0.00in /  0mm 0 W/m2
04:39 41.1 °F /  5.1 °C 29.3 °F /  -1.5 °C 29.89in /  1012.1hPa NW 4.2mph /  6.8km/h 10mph /  16.1km/h 62.5% 0.00in /  0mm 0 W/m2
04:44 41.1 °F /  5.1 °C 29.4 °F /  -1.4 °C 29.89in /  1012.1hPa WNW 5.6mph /  9km/h 13mph /  20.9km/h 63% 0.00in /  0mm 0 W/m2
04:49 41 °F /  5 °C 29.4 °F /  -1.4 °C 29.89in /  1012.1hPa NW 7.3mph /  11.7km/h 15mph /  24.1km/h 63% 0.00in /  0mm 0 W/m2
04:54 41.1 °F /  5.1 °C 29.5 °F /  -1.4 °C 29.90in /  1012.4hPa NW 4.2mph /  6.8km/h 15mph /  24.1km/h 63% 0.00in /  0mm 0 W/m2
04:59 41.1 °F /  5.1 °C 29.5 °F /  -1.4 °C 29.90in /  1012.4hPa WNW 5mph /  8km/h 15mph /  24.1km/h 63% 0.00in /  0mm 0 W/m2
05:04 41.1 °F /  5.1 °C 29.5 °F /  -1.4 °C 29.89in /  1012.1hPa NW 8.3mph /  13.4km/h 19mph /  30.6km/h 63% 0.00in /  0mm 0 W/m2
05:09 41.1 °F /  5.1 °C 29.5 °F /  -1.4 °C 29.89in /  1012.1hPa WNW 5.9mph /  9.5km/h 19mph /  30.6km/h 63% 0.00in /  0mm 0 W/m2
05:14 41.1 °F /  5.1 °C 29.5 °F /  -1.4 °C 29.89in /  1012.1hPa NW 4.3mph /  6.9km/h 19mph /  30.6km/h 63% 0.00in /  0mm 0 W/m2
05:19 41 °F /  5 °C 29.9 °F /  -1.2 °C 29.89in /  1012.1hPa NW 6.8mph /  10.9km/h 19mph /  30.6km/h 64.3% 0.00in /  0mm 0 W/m2
05:24 41 °F /  5 °C 29.8 °F /  -1.2 °C 29.89in /  1012.1hPa NW 2.8mph /  4.5km/h 19mph /  30.6km/h 64.1% 0.00in /  0mm 0 W/m2
05:29 40.9 °F /  4.9 °C 29.3 °F /  -1.5 °C 29.89in /  1012.1hPa NW 1.2mph /  1.9km/h 19mph /  30.6km/h 62.9% 0.00in /  0mm 0 W/m2
05:34 40.8 °F /  4.9 °C 29.2 °F /  -1.6 °C 29.90in /  1012.4hPa WNW 2.8mph /  4.5km/h 19mph /  30.6km/h 63% 0.00in /  0mm 0 W/m2
05:39 40.7 °F /  4.8 °C 29.1 °F /  -1.6 °C 29.90in /  1012.4hPa NW 4.1mph /  6.6km/h 13mph /  20.9km/h 63% 0.00in /  0mm 0 W/m2
05:44 40.7 °F /  4.8 °C 29.1 °F /  -1.6 °C 29.90in /  1012.4hPa NW 2.8mph /  4.5km/h 13mph /  20.9km/h 63% 0.00in /  0mm 0 W/m2
05:49 40.7 °F /  4.8 °C 29.1 °F /  -1.6 °C 29.90in /  1012.4hPa NW 1.4mph /  2.3km/h 13mph /  20.9km/h 63% 0.00in /  0mm 0 W/m2
05:54 40.6 °F /  4.8 °C 29 °F /  -1.7 °C 29.90in /  1012.4hPa NW 1.5mph /  2.4km/h 13mph /  20.9km/h 63% 0.00in /  0mm 0 W/m2
05:59 40.5 °F /  4.7 °C 29 °F /  -1.7 °C 29.90in /  1012.4hPa NW 2mph /  3.2km/h 13mph /  20.9km/h 63.2% 0.00in /  0mm 0 W/m2
06:04 40.4 °F /  4.7 °C 29.2 °F /  -1.6 °C 29.90in /  1012.4hPa NW 1.8mph /  2.9km/h 14mph /  22.5km/h 64% 0.00in /  0mm 0 W/m2
06:09 40.4 °F /  4.7 °C 29.2 °F /  -1.6 °C 29.90in /  1012.4hPa NW 4.2mph /  6.8km/h 14mph /  22.5km/h 64% 0.00in /  0mm 0 W/m2
06:14 40.5 °F /  4.7 °C 29.3 °F /  -1.5 °C 29.91in /  1012.8hPa WNW 3.3mph /  5.3km/h 14mph /  22.5km/h 64% 0.00in /  0mm 0 W/m2
06:19 40.6 °F /  4.8 °C 29.6 °F /  -1.3 °C 29.90in /  1012.4hPa WNW 3.1mph /  5km/h 14mph /  22.5km/h 64.7% 0.00in /  0mm 0 W/m2
06:24 40.7 °F /  4.8 °C 29.7 °F /  -1.3 °C 29.91in /  1012.8hPa WNW 0.9mph /  1.4km/h 14mph /  22.5km/h 64.8% 0.00in /  0mm 0 W/m2
06:29 40.6 °F /  4.8 °C 29.6 °F /  -1.3 °C 29.91in /  1012.8hPa NW 1.5mph /  2.4km/h 14mph /  22.5km/h 64.5% 0.00in /  0mm 0 W/m2
06:34 40.6 °F /  4.8 °C 29.8 °F /  -1.2 °C 29.92in /  1013.1hPa NW 1mph /  1.6km/h 14mph /  22.5km/h 65% 0.00in /  0mm 0 W/m2
06:39 40.6 °F /  4.8 °C 29.8 °F /  -1.2 °C 29.92in /  1013.1hPa WNW 3.1mph /  5km/h 11mph /  17.7km/h 65% 0.00in /  0mm 0 W/m2
06:44 40.7 °F /  4.8 °C 29.8 °F /  -1.2 °C 29.92in /  1013.1hPa WNW 1.6mph /  2.6km/h 11mph /  17.7km/h 65% 0.00in /  0mm 0 W/m2
06:49 40.7 °F /  4.8 °C 29.9 °F /  -1.2 °C 29.92in /  1013.1hPa WNW 3.5mph /  5.6km/h 11mph /  17.7km/h 65% 0.00in /  0mm 0 W/m2
06:54 40.9 °F /  4.9 °C 30.2 °F /  -1 °C 29.93in /  1013.4hPa WNW 2mph /  3.2km/h 11mph /  17.7km/h 65.6% 0.00in /  0mm 0 W/m2
06:59 41 °F /  5 °C 30.4 °F /  -0.9 °C 29.93in /  1013.4hPa NW 0.5mph /  0.8km/h 11mph /  17.7km/h 65.8% 0.00in /  0mm 7 W/m2
07:04 41.1 °F /  5.1 °C 30.3 °F /  -0.9 °C 29.93in /  1013.4hPa NW 5.4mph /  8.7km/h 21mph /  33.8km/h 65.3% 0.00in /  0mm 9 W/m2
07:09 41.3 °F /  5.2 °C 30.5 °F /  -0.8 °C 29.93in /  1013.4hPa NW 3.5mph /  5.6km/h 21mph /  33.8km/h 65% 0.00in /  0mm 11 W/m2
07:14 41.5 °F /  5.3 °C 30.6 °F /  -0.8 °C 29.93in /  1013.4hPa NW 3.6mph /  5.8km/h 21mph /  33.8km/h 65% 0.00in /  0mm 18 W/m2
07:19 41.5 °F /  5.3 °C 30.6 °F /  -0.8 °C 29.94in /  1013.8hPa WNW 1.6mph /  2.6km/h 21mph /  33.8km/h 65% 0.00in /  0mm 23 W/m2
07:24 41.6 °F /  5.3 °C 30.7 °F /  -0.7 °C 29.94in /  1013.8hPa WNW 3mph /  4.8km/h 21mph /  33.8km/h 65% 0.00in /  0mm 30 W/m2
07:29 41.7 °F /  5.4 °C 30.8 °F /  -0.7 °C 29.94in /  1013.8hPa WNW 3.6mph /  5.8km/h 21mph /  33.8km/h 65% 0.00in /  0mm 49 W/m2
07:34 41.9 °F /  5.5 °C 31 °F /  -0.6 °C 29.94in /  1013.8hPa WNW 1.9mph /  3.1km/h 21mph /  33.8km/h 65% 0.00in /  0mm 58 W/m2
07:39 42.1 °F /  5.6 °C 31.2 °F /  -0.4 °C 29.94in /  1013.8hPa WNW 2.9mph /  4.7km/h 9mph /  14.5km/h 65% 0.00in /  0mm 44 W/m2
07:44 42.2 °F /  5.7 °C 31.3 °F /  -0.4 °C 29.94in /  1013.8hPa WNW 2.6mph /  4.2km/h 9mph /  14.5km/h 65% 0.00in /  0mm 47 W/m2
07:49 42.3 °F /  5.7 °C 31.4 °F /  -0.3 °C 29.95in /  1014.1hPa WNW 4.5mph /  7.2km/h 12mph /  19.3km/h 65% 0.00in /  0mm 51 W/m2
07:54 42.5 °F /  5.8 °C 31.6 °F /  -0.2 °C 29.95in /  1014.1hPa WNW 5.9mph /  9.5km/h 12mph /  19.3km/h 65% 0.00in /  0mm 56 W/m2
07:59 42.7 °F /  5.9 °C 31.7 °F /  -0.2 °C 29.95in /  1014.1hPa WNW 5.3mph /  8.5km/h 19mph /  30.6km/h 65% 0.00in /  0mm 65 W/m2
08:00 42.8 °F /  6 °C 31.9 °F /  -0.1 °C 29.95in /  1014.1hPa WNW 2mph /  3.2km/h 19mph /  30.6km/h 65% 0.00in /  0mm 65 W/m2
08:09 43 °F /  6.1 °C 32.5 °F /  0.3 °C 29.95in /  1014.1hPa WNW 5.3mph /  8.5km/h 17mph /  27.4km/h 66% 0.00in /  0mm 67 W/m2
08:14 43.2 °F /  6.2 °C 32.4 °F /  0.2 °C 29.95in /  1014.1hPa WNW 3mph /  4.8km/h 17mph /  27.4km/h 65.4% 0.00in /  0mm 74 W/m2
08:19 43.3 °F /  6.3 °C 32.7 °F /  0.4 °C 29.95in /  1014.1hPa WNW 5.7mph /  9.2km/h 17mph /  27.4km/h 65.8% 0.00in /  0mm 81 W/m2
08:24 43.4 °F /  6.3 °C 32.8 °F /  0.4 °C 29.95in /  1014.1hPa WNW 6.3mph /  10.1km/h 17mph /  27.4km/h 66% 0.00in /  0mm 151 W/m2
08:29 43.6 °F /  6.4 °C 33 °F /  0.6 °C 29.96in /  1014.4hPa WNW 6.3mph /  10.1km/h 17mph /  27.4km/h 66% 0.00in /  0mm 84 W/m2
08:34 43.7 °F /  6.5 °C 33.1 °F /  0.6 °C 29.96in /  1014.4hPa WNW 7.8mph /  12.6km/h 18mph /  29km/h 65.8% 0.00in /  0mm 97 W/m2
08:39 43.9 °F /  6.6 °C 33.3 °F /  0.7 °C 29.96in /  1014.4hPa WNW 8.1mph /  13km/h 18mph /  29km/h 66% 0.00in /  0mm 114 W/m2
08:44 44.1 °F /  6.7 °C 33.5 °F /  0.8 °C 29.96in /  1014.4hPa NW 5.9mph /  9.5km/h 18mph /  29km/h 66% 0.00in /  0mm 118 W/m2
08:49 44.3 °F /  6.8 °C 33.6 °F /  0.9 °C 29.96in /  1014.4hPa NW 5.7mph /  9.2km/h 18mph /  29km/h 66% 0.00in /  0mm 123 W/m2
08:54 44.4 °F /  6.9 °C 33.6 °F /  0.9 °C 29.96in /  1014.4hPa WNW 4.1mph /  6.6km/h 18mph /  29km/h 65.5% 0.00in /  0mm 163 W/m2
08:59 44.6 °F /  7 °C 33.7 °F /  0.9 °C 29.96in /  1014.4hPa NW 5.1mph /  8.2km/h 18mph /  29km/h 65.2% 0.00in /  0mm 163 W/m2
09:04 44.9 °F /  7.2 °C 33.9 °F /  1.1 °C 29.96in /  1014.4hPa NW 4.7mph /  7.6km/h 18mph /  29km/h 65.2% 0.00in /  0mm 137 W/m2
09:07 45.1 °F /  7.3 °C 34 °F /  1.1 °C 29.95in /  1014.1hPa NW 6.1mph /  9.8km/h 14mph /  22.5km/h 65% 0.00in /  0mm 128 W/m2
Hartford County Weather
Compliments of Weather Underground - 4 mb